KCZL

Tom B David Field Airport

Calhoun, Georgia, USA
METAR KCZL 180655Z AUTO 35008G14KT 10SM OVC019 11/08 A3020 RMK AO2 T01100082
Observed Flight Rules
Feb-18 @ 06:55 UTC (20 minutes ago) Marginal Visual Flight Rules
Wind Visibility Clouds
350° at 8 knots
 Gusting to 14 knots
10 miles
  • Overcast at 1,900' AGL
Temperatures Readings
Current 11°C / 52°F
Dewpoint 8°C / 46°F
Humidity 82%
Altimeter 30.2" Hg
Pressure 1023 hPa
Elevation 195
METAR KCZL 180655Z AUTO 35008G14KT 10SM OVC019 11/08 A3020 RMK AO2 T01100082
Observed Flight Rules
Feb-18 @ 06:55 UTC
(20 minutes ago)
MVFR
Wind Visibility
350° at 8 knots
 Gusting to 14 knots
10 miles
Clouds
  • Overcast at 1,900' AGL
Temperature Dewpoint
11°C / 52°F 8°C / 46°F
Humidity Altimeter Pressure
82% 30.2" Hg 1023 hPa